Terminal Aerodrome Forecast
Issued by NWS

Home | Current Version | Previous Version | Text Only | Print | Product List | Glossary Off
Versions: 1 2 3 4 5 6 7 8 9 10 11 12 13 14 15 16

000
FTUS43 KICT 231100
TAFCNU
TAF
KCNU 231125Z 2312/2412 36005KT P6SM SCT080
      TEMPO 2312/2314 6SM BR BKN015
     FM231400 04007KT P6SM SCT025
     FM231600 05007KT P6SM SCT250
     FM240000 VRB05KT P6SM SKC
     FM240900 09003KT 5SM BR SCT250=

USA.gov is the U.S. government's official web portal to all federal, state and local government web resources and services.